sensor_id;sensor_type;location;lat;lon;timestamp;pressure;altitude;pressure_sealevel;temperature;humidity
45113;BME280;30873;53.908;27.576;2023-03-26T00:04:09;1000.3;;;12.8;54.5
45113;BME280;30873;53.908;27.576;2023-03-26T00:09:11;1000.3;;;12.9;54.4
45113;BME280;30873;53.908;27.576;2023-03-26T00:13:35;1000.3;;;13;54.1
45113;BME280;30873;53.908;27.576;2023-03-26T00:18:45;1000.2;;;12.9;54.3
45113;BME280;30873;53.908;27.576;2023-03-26T00:24:27;1000.2;;;12.9;54.4
45113;BME280;30873;53.908;27.576;2023-03-26T00:28:59;1000.2;;;12.8;54.6
45113;BME280;30873;53.908;27.576;2023-03-26T00:34:11;1000.2;;;12.9;54.7
45113;BME280;30873;53.908;27.576;2023-03-26T00:38:45;1000.2;;;12.9;54.6
45113;BME280;30873;53.908;27.576;2023-03-26T00:43:45;1000.1;;;12.9;54.5
45113;BME280;30873;53.908;27.576;2023-03-26T00:49:27;1000.1;;;13;54.1
45113;BME280;30873;53.908;27.576;2023-03-26T00:54:11;1000.1;;;12.9;54.6
45113;BME280;30873;53.908;27.576;2023-03-26T00:58:59;1000;;;12.9;54.5
45113;BME280;30873;53.908;27.576;2023-03-26T01:03:36;999.9;;;13;54.4
45113;BME280;30873;53.908;27.576;2023-03-26T01:08:47;999.9;;;13.1;54
45113;BME280;30873;53.908;27.576;2023-03-26T01:14:29;999.8;;;13.2;53.9
45113;BME280;30873;53.908;27.576;2023-03-26T01:19:11;999.8;;;13.3;54
45113;BME280;30873;53.908;27.576;2023-03-26T01:24:08;999.8;;;13.2;54.3
45113;BME280;30873;53.908;27.576;2023-03-26T01:28:53;999.7;;;13.1;55
45113;BME280;30873;53.908;27.576;2023-03-26T01:34:02;999.7;;;13.1;55
45113;BME280;30873;53.908;27.576;2023-03-26T01:39:30;999.8;;;13;55.3
45113;BME280;30873;53.908;27.576;2023-03-26T01:44:09;999.8;;;12.9;55.7
45113;BME280;30873;53.908;27.576;2023-03-26T01:49:29;999.8;;;13;55.5
45113;BME280;30873;53.908;27.576;2023-03-26T01:53:59;999.7;;;12.9;56.3
45113;BME280;30873;53.908;27.576;2023-03-26T01:58:49;999.8;;;12.9;56.3
45113;BME280;30873;53.908;27.576;2023-03-26T02:04:27;999.7;;;12.9;56.3
45113;BME280;30873;53.908;27.576;2023-03-26T02:09:10;999.7;;;12.8;56.8
45113;BME280;30873;53.908;27.576;2023-03-26T02:14:27;999.6;;;12.7;57.7
45113;BME280;30873;53.908;27.576;2023-03-26T02:19:01;999.7;;;12.6;58.1
45113;BME280;30873;53.908;27.576;2023-03-26T02:23:35;999.6;;;12.4;58.5
45113;BME280;30873;53.908;27.576;2023-03-26T02:29:27;999.6;;;12.3;58.9
45113;BME280;30873;53.908;27.576;2023-03-26T02:34:11;999.5;;;12.4;59.1
45113;BME280;30873;53.908;27.576;2023-03-26T02:39:29;999.5;;;12.4;59.1
45113;BME280;30873;53.908;27.576;2023-03-26T02:44:01;999.5;;;12.4;59.3
45113;BME280;30873;53.908;27.576;2023-03-26T02:48:45;999.5;;;12.4;59.4
45113;BME280;30873;53.908;27.576;2023-03-26T02:54:27;999.5;;;12.4;59.3
45113;BME280;30873;53.908;27.576;2023-03-26T02:59:29;999.5;;;12.5;59.3
45113;BME280;30873;53.908;27.576;2023-03-26T03:04:27;999.5;;;12.6;59.1
45113;BME280;30873;53.908;27.576;2023-03-26T03:09:03;999.4;;;12.6;59.2
45113;BME280;30873;53.908;27.576;2023-03-26T03:13:35;999.4;;;12.7;59
45113;BME280;30873;53.908;27.576;2023-03-26T03:18:35;999.4;;;12.8;59
45113;BME280;30873;53.908;27.576;2023-03-26T03:24:11;999.4;;;12.6;59.2
45113;BME280;30873;53.908;27.576;2023-03-26T03:29:29;999.5;;;12.5;59.7
45113;BME280;30873;53.908;27.576;2023-03-26T03:33:35;999.5;;;12.5;60.1
45113;BME280;30873;53.908;27.576;2023-03-26T03:39:15;999.5;;;12.4;60.4
45113;BME280;30873;53.908;27.576;2023-03-26T03:44:01;999.5;;;12.5;60.6
45113;BME280;30873;53.908;27.576;2023-03-26T03:49:11;999.6;;;12.5;60.8
45113;BME280;30873;53.908;27.576;2023-03-26T03:54:11;999.6;;;12.5;61
45113;BME280;30873;53.908;27.576;2023-03-26T03:58:35;999.6;;;12.6;61
45113;BME280;30873;53.908;27.576;2023-03-26T04:04:03;999.6;;;12.6;61.1
45113;BME280;30873;53.908;27.576;2023-03-26T04:09:03;999.6;;;12.6;61.5
45113;BME280;30873;53.908;27.576;2023-03-26T04:14:11;999.6;;;12.5;62
45113;BME280;30873;53.908;27.576;2023-03-26T04:19:27;999.6;;;12.2;62.7
45113;BME280;30873;53.908;27.576;2023-03-26T04:24:03;999.6;;;12;63.4
45113;BME280;30873;53.908;27.576;2023-03-26T04:28:39;999.5;;;11.9;63.6
45113;BME280;30873;53.908;27.576;2023-03-26T04:33:51;999.6;;;11.9;63.8
45113;BME280;30873;53.908;27.576;2023-03-26T04:38:38;999.6;;;11.9;64.1
45113;BME280;30873;53.908;27.576;2023-03-26T04:44:09;999.6;;;11.8;64.6
45113;BME280;30873;53.908;27.576;2023-03-26T04:48:51;999.7;;;11.7;65.5
45113;BME280;30873;53.908;27.576;2023-03-26T04:53:35;999.7;;;11.6;66.2
45113;BME280;30873;53.908;27.576;2023-03-26T04:59:01;999.7;;;11.4;66.9
45113;BME280;30873;53.908;27.576;2023-03-26T05:03:59;999.7;;;11.4;67.8
45113;BME280;30873;53.908;27.576;2023-03-26T05:09:29;999.7;;;11.5;68.2
45113;BME280;30873;53.908;27.576;2023-03-26T05:13:43;999.6;;;11.5;68.5
45113;BME280;30873;53.908;27.576;2023-03-26T05:18:51;999.6;;;11.5;68.7
45113;BME280;30873;53.908;27.576;2023-03-26T05:23:43;999.6;;;11.6;68.7
45113;BME280;30873;53.908;27.576;2023-03-26T05:28:57;999.6;;;11.7;68.9
45113;BME280;30873;53.908;27.576;2023-03-26T05:33:37;999.6;;;11.8;68.8
45113;BME280;30873;53.908;27.576;2023-03-26T05:39:01;999.6;;;11.9;68.8
45113;BME280;30873;53.908;27.576;2023-03-26T05:43:43;999.6;;;12;68.8
45113;BME280;30873;53.908;27.576;2023-03-26T05:48:59;999.6;;;12;68.8
45113;BME280;30873;53.908;27.576;2023-03-26T05:54:27;999.6;;;12.1;68.7
45113;BME280;30873;53.908;27.576;2023-03-26T05:59:27;999.6;;;12.2;68.5
45113;BME280;30873;53.908;27.576;2023-03-26T06:03:44;999.6;;;12.4;68.4
45113;BME280;30873;53.908;27.576;2023-03-26T06:09:11;999.7;;;12.4;67.8
45113;BME280;30873;53.908;27.576;2023-03-26T06:13:44;999.7;;;12.3;67.7
45113;BME280;30873;53.908;27.576;2023-03-26T06:19:09;999.7;;;12.3;67.9
45113;BME280;30873;53.908;27.576;2023-03-26T06:24:29;999.7;;;12.5;67.9
45113;BME280;30873;53.908;27.576;2023-03-26T06:29:01;999.7;;;12.5;67.6
45113;BME280;30873;53.908;27.576;2023-03-26T06:33:45;999.7;;;12.5;67.4
45113;BME280;30873;53.908;27.576;2023-03-26T06:38:51;999.7;;;12.6;67.4
45113;BME280;30873;53.908;27.576;2023-03-26T06:44:09;999.8;;;12.6;67.3
45113;BME280;30873;53.908;27.576;2023-03-26T06:49:29;999.7;;;12.6;67.5
45113;BME280;30873;53.908;27.576;2023-03-26T06:54:03;999.8;;;12.6;67.4
45113;BME280;30873;53.908;27.576;2023-03-26T06:59:29;999.7;;;12.6;67.5
45113;BME280;30873;53.908;27.576;2023-03-26T07:03:35;999.7;;;12.4;67.8
45113;BME280;30873;53.908;27.576;2023-03-26T07:09:09;999.7;;;12.4;68.1
45113;BME280;30873;53.908;27.576;2023-03-26T07:14:29;999.7;;;12.4;68.1
45113;BME280;30873;53.908;27.576;2023-03-26T07:19:03;999.7;;;12.5;68.3
45113;BME280;30873;53.908;27.576;2023-03-26T07:23:35;999.7;;;12.5;68.2
45113;BME280;30873;53.908;27.576;2023-03-26T07:29:03;999.7;;;12.8;68
45113;BME280;30873;53.908;27.576;2023-03-26T07:34:32;999.7;;;12.9;67.6
45113;BME280;30873;53.908;27.576;2023-03-26T07:39:13;999.7;;;12.9;67.4
45113;BME280;30873;53.908;27.576;2023-03-26T07:44:32;999.7;;;12.8;67.4
45113;BME280;30873;53.908;27.576;2023-03-26T07:48:47;999.8;;;12.7;67.5
45113;BME280;30873;53.908;27.576;2023-03-26T07:54:15;999.8;;;12.6;67.6
45113;BME280;30873;53.908;27.576;2023-03-26T07:59:19;999.8;;;12.7;67.9
45113;BME280;30873;53.908;27.576;2023-03-26T08:04:04;999.7;;;13;67.7
45113;BME280;30873;53.908;27.576;2023-03-26T08:09:28;999.6;;;13.3;66.7
45113;BME280;30873;53.908;27.576;2023-03-26T08:13:51;999.6;;;13.7;65.9
45113;BME280;30873;53.908;27.576;2023-03-26T08:19:23;999.7;;;14;64.8
45113;BME280;30873;53.908;27.576;2023-03-26T08:24:16;999.7;;;14.2;63.8
45113;BME280;30873;53.908;27.576;2023-03-26T08:29:16;999.8;;;14.1;63.2
45113;BME280;30873;53.908;27.576;2023-03-26T08:34:31;999.8;;;14.2;62.9
45113;BME280;30873;53.908;27.576;2023-03-26T08:38:45;999.8;;;14.9;62.4
45113;BME280;30873;53.908;27.576;2023-03-26T08:44:16;999.8;;;15.1;60.2
45113;BME280;30873;53.908;27.576;2023-03-26T08:49:34;999.8;;;14.7;59.5
45113;BME280;30873;53.908;27.576;2023-03-26T08:54:46;999.9;;;14.5;60.1
45113;BME280;30873;53.908;27.576;2023-03-26T08:59:41;999.8;;;14.3;60.2
45113;BME280;30873;53.908;27.576;2023-03-26T09:03:38;999.8;;;14.2;60.3
45113;BME280;30873;53.908;27.576;2023-03-26T09:09:04;999.8;;;14;60.6
45113;BME280;30873;53.908;27.576;2023-03-26T09:19:23;999.8;;;14.2;60.3
45113;BME280;30873;53.908;27.576;2023-03-26T09:24:41;999.8;;;14.3;60.1
45113;BME280;30873;53.908;27.576;2023-03-26T09:29:20;999.8;;;14.4;59.7
45113;BME280;30873;53.908;27.576;2023-03-26T09:34:18;999.8;;;14.7;59.2
45113;BME280;30873;53.908;27.576;2023-03-26T09:39:12;999.8;;;14.7;59.4
45113;BME280;30873;53.908;27.576;2023-03-26T09:44:16;999.8;;;14.8;58.9
45113;BME280;30873;53.908;27.576;2023-03-26T09:49:33;999.8;;;14.8;58.7
45113;BME280;30873;53.908;27.576;2023-03-26T09:53:55;999.8;;;14.7;58.3
45113;BME280;30873;53.908;27.576;2023-03-26T09:58:54;999.8;;;14.9;57.6
45113;BME280;30873;53.908;27.576;2023-03-26T10:04:32;999.7;;;15.2;56.7
45113;BME280;30873;53.908;27.576;2023-03-26T10:09:29;999.6;;;15.5;55.6
45113;BME280;30873;53.908;27.576;2023-03-26T10:14:31;999.6;;;16.2;53.3
45113;BME280;30873;53.908;27.576;2023-03-26T10:18:38;999.5;;;16.6;52.2
45113;BME280;30873;53.908;27.576;2023-03-26T10:24:02;999.4;;;17.1;50.9
45113;BME280;30873;53.908;27.576;2023-03-26T10:29:39;999.5;;;16.7;50.7
45113;BME280;30873;53.908;27.576;2023-03-26T10:34:25;999.4;;;17;49.7
45113;BME280;30873;53.908;27.576;2023-03-26T10:39:28;999.5;;;17.3;49.2
45113;BME280;30873;53.908;27.576;2023-03-26T10:44:19;999.5;;;17.1;49.3
45113;BME280;30873;53.908;27.576;2023-03-26T10:49:05;999.6;;;16.5;50.9
45113;BME280;30873;53.908;27.576;2023-03-26T10:54:30;999.6;;;16.1;52
45113;BME280;30873;53.908;27.576;2023-03-26T10:59:12;999.5;;;16;52.3
45113;BME280;30873;53.908;27.576;2023-03-26T11:04:27;999.5;;;16.5;51.3
45113;BME280;30873;53.908;27.576;2023-03-26T11:09:00;999.4;;;17.3;50
45113;BME280;30873;53.908;27.576;2023-03-26T11:13:59;999.3;;;17.4;48.6
45113;BME280;30873;53.908;27.576;2023-03-26T11:19:19;999.3;;;17.3;48.8
45113;BME280;30873;53.908;27.576;2023-03-26T11:24:01;999.2;;;17.6;48.4
45113;BME280;30873;53.908;27.576;2023-03-26T11:29:31;999.2;;;17.9;47.8
45113;BME280;30873;53.908;27.576;2023-03-26T11:33:44;999.2;;;17.4;48
45113;BME280;30873;53.908;27.576;2023-03-26T11:39:14;999.1;;;17.2;48.2
45113;BME280;30873;53.908;27.576;2023-03-26T11:44:28;999;;;17.3;48.2
45113;BME280;30873;53.908;27.576;2023-03-26T11:49:12;999;;;18.2;47
45113;BME280;30873;53.908;27.576;2023-03-26T11:54:29;998.9;;;21.8;41.7
45113;BME280;30873;53.908;27.576;2023-03-26T11:58:45;998.7;;;23.5;37.6
45113;BME280;30873;53.908;27.576;2023-03-26T12:03:54;998.6;;;26.4;32.7
45113;BME280;30873;53.908;27.576;2023-03-26T12:08:43;998.7;;;26.1;31.9
45113;BME280;30873;53.908;27.576;2023-03-26T12:14:14;998.6;;;27.4;30.4
45113;BME280;30873;53.908;27.576;2023-03-26T12:19:17;998.5;;;27.1;30.2
45113;BME280;30873;53.908;27.576;2023-03-26T12:24:00;998.6;;;24;33.4
45113;BME280;30873;53.908;27.576;2023-03-26T12:29:04;998.6;;;21.3;37.4
45113;BME280;30873;53.908;27.576;2023-03-26T12:34:16;998.6;;;19.8;40.5
45113;BME280;30873;53.908;27.576;2023-03-26T12:39:26;998.6;;;18.9;42.2
45113;BME280;30873;53.908;27.576;2023-03-26T12:44:29;998.6;;;18.1;43.9
45113;BME280;30873;53.908;27.576;2023-03-26T12:48:35;998.6;;;17.3;45.5
45113;BME280;30873;53.908;27.576;2023-03-26T12:54:05;998.6;;;16.8;46.2
45113;BME280;30873;53.908;27.576;2023-03-26T12:58:49;998.6;;;16.4;47.4
45113;BME280;30873;53.908;27.576;2023-03-26T13:04:35;998.7;;;16.1;48.7
45113;BME280;30873;53.908;27.576;2023-03-26T13:09:27;998.7;;;15.9;49.4
45113;BME280;30873;53.908;27.576;2023-03-26T13:13:40;998.7;;;15.4;50.7
45113;BME280;30873;53.908;27.576;2023-03-26T13:19:00;998.7;;;15;50.9
45113;BME280;30873;53.908;27.576;2023-03-26T13:24:04;998.8;;;14.8;51.3
45113;BME280;30873;53.908;27.576;2023-03-26T13:29:29;998.8;;;14.6;51.6
45113;BME280;30873;53.908;27.576;2023-03-26T13:34:27;998.9;;;14.4;51.7
45113;BME280;30873;53.908;27.576;2023-03-26T13:38:46;999.2;;;13.9;54.5
45113;BME280;30873;53.908;27.576;2023-03-26T13:43:40;999.4;;;12.9;57.7
45113;BME280;30873;53.908;27.576;2023-03-26T13:48:36;999.3;;;13;58.3
45113;BME280;30873;53.908;27.576;2023-03-26T13:54:10;999.2;;;13.6;57.4
45113;BME280;30873;53.908;27.576;2023-03-26T13:58:58;999.2;;;14;57.1
45113;BME280;30873;53.908;27.576;2023-03-26T14:03:40;999.2;;;14.6;56.1
45113;BME280;30873;53.908;27.576;2023-03-26T14:09:02;999;;;15;54.7
45113;BME280;30873;53.908;27.576;2023-03-26T14:14:00;999;;;15.4;53.6
45113;BME280;30873;53.908;27.576;2023-03-26T14:18:39;998.9;;;15.2;52.8
45113;BME280;30873;53.908;27.576;2023-03-26T14:24:16;998.9;;;14.9;53.8
45113;BME280;30873;53.908;27.576;2023-03-26T14:29:51;998.9;;;14.5;54.8
45113;BME280;30873;53.908;27.576;2023-03-26T14:34:03;998.8;;;14.1;55.8
45113;BME280;30873;53.908;27.576;2023-03-26T14:39:03;998.8;;;13.9;56.8
45113;BME280;30873;53.908;27.576;2023-03-26T14:43:45;998.8;;;13.9;57.6
45113;BME280;30873;53.908;27.576;2023-03-26T14:49:28;998.8;;;13.9;57.1
45113;BME280;30873;53.908;27.576;2023-03-26T14:54:15;998.7;;;13.8;56.9
45113;BME280;30873;53.908;27.576;2023-03-26T14:59:16;998.7;;;13.7;57.3
45113;BME280;30873;53.908;27.576;2023-03-26T15:04:41;998.8;;;13.7;57.4
45113;BME280;30873;53.908;27.576;2023-03-26T15:14:39;998.8;;;13.3;58.2
45113;BME280;30873;53.908;27.576;2023-03-26T15:19:50;998.8;;;13.3;58.5
45113;BME280;30873;53.908;27.576;2023-03-26T15:25:10;999;;;13.2;58.9
45113;BME280;30873;53.908;27.576;2023-03-26T15:29:12;999.1;;;12.8;60.9
45113;BME280;30873;53.908;27.576;2023-03-26T15:34:11;999;;;12.5;61.3
45113;BME280;30873;53.908;27.576;2023-03-26T15:39:33;999;;;12.6;60.7
45113;BME280;30873;53.908;27.576;2023-03-26T15:44:04;998.9;;;12.8;59.8
45113;BME280;30873;53.908;27.576;2023-03-26T15:49:00;998.7;;;13;58.7
45113;BME280;30873;53.908;27.576;2023-03-26T15:53:45;998.7;;;13;58.5
45113;BME280;30873;53.908;27.576;2023-03-26T15:58:36;998.7;;;12.9;59
45113;BME280;30873;53.908;27.576;2023-03-26T16:04:18;998.8;;;12.6;59.5
45113;BME280;30873;53.908;27.576;2023-03-26T16:08:46;998.8;;;12.4;59.5
45113;BME280;30873;53.908;27.576;2023-03-26T16:14:10;998.9;;;12.2;60.4
45113;BME280;30873;53.908;27.576;2023-03-26T16:18:49;999;;;12;61
45113;BME280;30873;53.908;27.576;2023-03-26T16:23:54;999;;;12;61.1
45113;BME280;30873;53.908;27.576;2023-03-26T16:29:16;999;;;12;61.3
45113;BME280;30873;53.908;27.576;2023-03-26T16:34:26;999;;;12;61
45113;BME280;30873;53.908;27.576;2023-03-26T16:39:26;999;;;12;61.2
45113;BME280;30873;53.908;27.576;2023-03-26T16:43:38;999.1;;;11.7;61.2
45113;BME280;30873;53.908;27.576;2023-03-26T16:48:37;999.1;;;11.6;61.1
45113;BME280;30873;53.908;27.576;2023-03-26T16:54:19;999.1;;;11.6;61.4
45113;BME280;30873;53.908;27.576;2023-03-26T16:58:36;999;;;11.5;61.9
45113;BME280;30873;53.908;27.576;2023-03-26T17:04:28;999;;;11.4;62.3
45113;BME280;30873;53.908;27.576;2023-03-26T17:08:38;999;;;11.5;62.1
45113;BME280;30873;53.908;27.576;2023-03-26T17:14:11;999;;;11.6;62.7
45113;BME280;30873;53.908;27.576;2023-03-26T17:19:20;999;;;11.6;63.1
45113;BME280;30873;53.908;27.576;2023-03-26T17:23:50;999;;;11.5;63
45113;BME280;30873;53.908;27.576;2023-03-26T17:29:31;999.1;;;11.3;63.2
45113;BME280;30873;53.908;27.576;2023-03-26T17:33:46;999.1;;;11.4;63.5
45113;BME280;30873;53.908;27.576;2023-03-26T17:38:58;999.1;;;11.3;63.7
45113;BME280;30873;53.908;27.576;2023-03-26T17:44:49;999.1;;;11.3;63.7
45113;BME280;30873;53.908;27.576;2023-03-26T17:48:57;999.1;;;11.4;63.4
45113;BME280;30873;53.908;27.576;2023-03-26T17:54:26;999.1;;;11.4;62.9
45113;BME280;30873;53.908;27.576;2023-03-26T17:58:36;999.1;;;11.5;62.9
45113;BME280;30873;53.908;27.576;2023-03-26T18:03:54;999.1;;;11.6;63
45113;BME280;30873;53.908;27.576;2023-03-26T18:08:48;999.1;;;11.7;62.9
45113;BME280;30873;53.908;27.576;2023-03-26T18:14:35;999.1;;;11.7;62.8
45113;BME280;30873;53.908;27.576;2023-03-26T18:19:28;999.1;;;11.7;62.7
45113;BME280;30873;53.908;27.576;2023-03-26T18:23:46;999.1;;;11.5;63.3
45113;BME280;30873;53.908;27.576;2023-03-26T18:29:07;999.1;;;11.4;63.3
45113;BME280;30873;53.908;27.576;2023-03-26T18:34:17;999.1;;;11.4;63.7
45113;BME280;30873;53.908;27.576;2023-03-26T18:38:56;999;;;11.3;63.8
45113;BME280;30873;53.908;27.576;2023-03-26T18:44:25;999;;;11.3;64.1
45113;BME280;30873;53.908;27.576;2023-03-26T18:48:36;999;;;11.4;63.9
45113;BME280;30873;53.908;27.576;2023-03-26T18:53:57;999;;;11.3;64
45113;BME280;30873;53.908;27.576;2023-03-26T18:59:21;999;;;11.2;64.4
45113;BME280;30873;53.908;27.576;2023-03-26T19:03:56;999.1;;;11.2;64.4
45113;BME280;30873;53.908;27.576;2023-03-26T19:09:28;999.1;;;11.3;64.4
45113;BME280;30873;53.908;27.576;2023-03-26T19:13:58;999.1;;;11.4;64.5
45113;BME280;30873;53.908;27.576;2023-03-26T19:19:28;999.1;;;11.3;64.7
45113;BME280;30873;53.908;27.576;2023-03-26T19:24:28;999.2;;;11.2;65
45113;BME280;30873;53.908;27.576;2023-03-26T19:28:56;999.2;;;11.2;65.2
45113;BME280;30873;53.908;27.576;2023-03-26T19:34:30;999.1;;;11;65.4
45113;BME280;30873;53.908;27.576;2023-03-26T19:38:48;999.1;;;11;65.7
45113;BME280;30873;53.908;27.576;2023-03-26T19:43:57;999.1;;;11;65.9
45113;BME280;30873;53.908;27.576;2023-03-26T19:49:23;999;;;11;65.9
45113;BME280;30873;53.908;27.576;2023-03-26T19:53:54;999;;;10.9;65.8
45113;BME280;30873;53.908;27.576;2023-03-26T19:59:28;999;;;10.8;65.9
45113;BME280;30873;53.908;27.576;2023-03-26T20:03:59;999;;;10.8;66
45113;BME280;30873;53.908;27.576;2023-03-26T20:08:56;999;;;10.7;65.7
45113;BME280;30873;53.908;27.576;2023-03-26T20:14:16;998.9;;;10.7;65.3
45113;BME280;30873;53.908;27.576;2023-03-26T20:18:54;998.9;;;10.6;65.2
45113;BME280;30873;53.908;27.576;2023-03-26T20:24:26;998.9;;;10.5;65.3
45113;BME280;30873;53.908;27.576;2023-03-26T20:29:18;998.9;;;10.5;65.5
45113;BME280;30873;53.908;27.576;2023-03-26T20:34:15;998.9;;;10.4;65.5
45113;BME280;30873;53.908;27.576;2023-03-26T20:39:28;998.8;;;10.4;65.9
45113;BME280;30873;53.908;27.576;2023-03-26T20:44:10;998.8;;;10.3;66.1
45113;BME280;30873;53.908;27.576;2023-03-26T20:49:14;998.7;;;10.3;66.2
45113;BME280;30873;53.908;27.576;2023-03-26T20:53:36;998.7;;;10.3;66.4
45113;BME280;30873;53.908;27.576;2023-03-26T20:59:15;998.7;;;10.3;66.5
45113;BME280;30873;53.908;27.576;2023-03-26T21:04:24;998.7;;;10.2;66.6
45113;BME280;30873;53.908;27.576;2023-03-26T21:09:08;998.6;;;10.2;66.8
45113;BME280;30873;53.908;27.576;2023-03-26T21:14:14;998.6;;;10.1;66.9
45113;BME280;30873;53.908;27.576;2023-03-26T22:19:28;998.6;;;10;67
45113;BME280;30873;53.908;27.576;2023-03-26T22:24:24;998.6;;;9.3;69.9
45113;BME280;30873;53.908;27.576;2023-03-26T22:29:12;998.6;;;9.3;69.9
45113;BME280;30873;53.908;27.576;2023-03-26T22:33:36;998.6;;;9.3;69.9
45113;BME280;30873;53.908;27.576;2023-03-26T22:39:04;998.6;;;9.4;69.7
45113;BME280;30873;53.908;27.576;2023-03-26T22:44:26;998.6;;;9.5;69.6
45113;BME280;30873;53.908;27.576;2023-03-26T22:48:56;998.6;;;9.5;69.6
45113;BME280;30873;53.908;27.576;2023-03-26T22:54:14;998.6;;;9.5;69.7
45113;BME280;30873;53.908;27.576;2023-03-26T22:58:46;998.6;;;9.6;69.6
45113;BME280;30873;53.908;27.576;2023-03-26T23:04:12;998.7;;;9.6;69.8
45113;BME280;30873;53.908;27.576;2023-03-26T23:09:00;998.6;;;9.7;69.5
45113;BME280;30873;53.908;27.576;2023-03-26T23:13:46;998.6;;;9.7;69.4
45113;BME280;30873;53.908;27.576;2023-03-26T23:18:38;998.5;;;9.7;69.3
45113;BME280;30873;53.908;27.576;2023-03-26T23:23:48;998.6;;;9.7;69.4
45113;BME280;30873;53.908;27.576;2023-03-26T23:29:14;998.6;;;9.7;69.6
45113;BME280;30873;53.908;27.576;2023-03-26T23:34:26;998.6;;;9.7;69.6
45113;BME280;30873;53.908;27.576;2023-03-26T23:38:36;998.6;;;9.8;69.4
45113;BME280;30873;53.908;27.576;2023-03-26T23:44:14;998.5;;;9.8;69.3
45113;BME280;30873;53.908;27.576;2023-03-26T23:48:36;998.5;;;9.8;69.4
45113;BME280;30873;53.908;27.576;2023-03-26T23:54:12;998.5;;;9.8;69.3
45113;BME280;30873;53.908;27.576;2023-03-26T23:59:26;998.5;;;9.9;69.4
